createdAt,value
2022-10-15T00:01:40.324Z,12.63
2022-10-15T00:04:07.099Z,13.75
2022-10-15T00:06:35.225Z,13.80
2022-10-15T00:09:03.584Z,14.20
2022-10-15T00:11:32.359Z,14.38
2022-10-15T00:14:00.496Z,14.00
2022-10-15T00:16:29.048Z,14.02
2022-10-15T00:18:59.474Z,13.88
2022-10-15T00:21:27.719Z,14.90
2022-10-15T00:23:57.239Z,14.80
2022-10-15T00:26:26.625Z,14.65
2022-10-15T00:29:02.036Z,14.93
2022-10-15T00:31:32.024Z,14.93
2022-10-15T00:34:01.130Z,15.70
2022-10-15T00:36:31.124Z,15.02
2022-10-15T00:39:06.533Z,14.50
2022-10-15T00:41:36.838Z,14.00
2022-10-15T00:44:25.725Z,14.50
2022-10-15T00:47:13.110Z,15.30
2022-10-15T00:49:44.549Z,15.23
2022-10-15T00:52:16.420Z,15.32
2022-10-15T00:54:55.569Z,15.65
2022-10-15T00:57:22.506Z,16.35
2022-10-15T00:59:54.275Z,16.73
2022-10-15T01:02:23.200Z,16.02
2022-10-15T01:04:50.681Z,17.15
2022-10-15T01:09:49.837Z,17.20
2022-10-15T01:12:48.997Z,17.98
2022-10-15T01:15:24.785Z,18.42
2022-10-15T01:18:06.989Z,16.05
2022-10-15T01:21:11.727Z,17.67
2022-10-15T01:23:41.724Z,16.65
2022-10-15T01:26:34.583Z,17.40
2022-10-15T01:29:40.993Z,16.23
2022-10-15T01:32:16.486Z,17.45
2022-10-15T01:34:51.111Z,15.95
2022-10-15T01:37:26.439Z,17.55
2022-10-15T01:40:06.556Z,16.95
2022-10-15T01:42:57.170Z,16.60
2022-10-15T01:45:58.141Z,17.23
2022-10-15T01:48:29.545Z,16.55
2022-10-15T01:51:01.953Z,17.05
2022-10-15T01:53:34.291Z,17.25
2022-10-15T01:56:09.037Z,17.38
2022-10-15T01:58:40.997Z,16.20
2022-10-15T02:01:08.066Z,18.52
2022-10-15T02:03:45.612Z,15.25
2022-10-15T02:06:26.788Z,16.48
2022-10-15T02:09:10.870Z,15.18
2022-10-15T02:11:53.231Z,15.07
2022-10-15T02:14:30.877Z,14.48
2022-10-15T02:17:10.470Z,14.57
2022-10-15T02:22:43.829Z,13.10
2022-10-15T02:25:20.038Z,13.52
2022-10-15T02:27:49.561Z,12.98
2022-10-15T02:30:17.592Z,13.68
2022-10-15T02:32:48.452Z,13.55
2022-10-15T02:35:23.734Z,13.75
2022-10-15T02:37:54.105Z,13.93
2022-10-15T02:40:25.081Z,13.88
2022-10-15T02:42:52.139Z,15.32
2022-10-15T02:45:19.910Z,15.85
2022-10-15T02:47:46.944Z,16.08
2022-10-15T02:50:13.968Z,16.30
2022-10-15T02:52:41.038Z,17.58
2022-10-15T02:55:08.145Z,17.38
2022-10-15T02:57:35.190Z,17.40
2022-10-15T03:00:02.200Z,17.83
2022-10-15T03:02:29.173Z,17.05
2022-10-15T03:04:55.825Z,17.33
2022-10-15T03:07:28.240Z,19.95
2022-10-15T03:09:55.243Z,18.23
2022-10-15T03:12:27.736Z,19.08
2022-10-15T03:14:54.737Z,19.38
2022-10-15T03:17:21.948Z,19.13
2022-10-15T03:19:49.307Z,19.65
2022-10-15T03:22:17.187Z,18.10
2022-10-15T03:24:43.820Z,19.15
2022-10-15T03:27:10.767Z,17.98
2022-10-15T03:29:37.788Z,18.27
2022-10-15T03:32:04.993Z,17.90
2022-10-15T03:34:36.752Z,17.60
2022-10-15T03:37:03.508Z,17.92
2022-10-15T03:39:30.481Z,16.30
2022-10-15T03:41:57.562Z,16.02
2022-10-15T03:44:25.996Z,16.33
2022-10-15T03:46:52.832Z,15.98
2022-10-15T03:49:20.755Z,15.98
2022-10-15T03:51:47.757Z,14.10
2022-10-15T03:54:17.736Z,13.73
2022-10-15T03:56:45.600Z,14.50
2022-10-15T03:59:12.598Z,13.23
2022-10-15T04:01:39.268Z,13.25
2022-10-15T04:04:08.193Z,12.65
2022-10-15T04:06:35.037Z,12.63
2022-10-15T04:09:02.885Z,11.38
2022-10-15T04:11:29.877Z,12.18
2022-10-15T04:13:57.729Z,11.20
2022-10-15T04:16:25.620Z,11.35
2022-10-15T04:18:55.343Z,10.38
2022-10-15T04:23:49.197Z,10.70
2022-10-15T04:26:19.307Z,10.02
2022-10-15T04:28:48.665Z,9.88
2022-10-15T04:31:17.793Z,9.55
2022-10-15T04:33:47.595Z,7.82
2022-10-15T04:36:14.525Z,9.60
2022-10-15T04:38:42.743Z,10.15
2022-10-15T04:41:12.529Z,10.02
2022-10-15T04:46:16.042Z,9.55
2022-10-15T04:48:44.683Z,9.57
2022-10-15T04:51:20.953Z,8.90
2022-10-15T04:53:50.749Z,9.93
2022-10-15T04:58:51.506Z,9.38
2022-10-15T05:01:19.969Z,9.65
2022-10-15T05:03:49.322Z,11.20
2022-10-15T05:06:21.157Z,9.80
2022-10-15T05:08:49.328Z,10.27
2022-10-15T05:11:24.007Z,9.95
2022-10-15T05:13:54.604Z,10.73
2022-10-15T05:16:23.680Z,9.50
2022-10-15T05:18:56.840Z,10.25
2022-10-15T05:21:23.899Z,10.07
2022-10-15T05:23:51.945Z,10.50
2022-10-15T05:26:22.505Z,10.75
2022-10-15T05:28:52.681Z,8.82
2022-10-15T05:31:22.229Z,10.52
2022-10-15T05:33:51.391Z,9.95
2022-10-15T05:36:27.248Z,10.00
2022-10-15T05:39:02.045Z,9.70
2022-10-15T05:41:34.556Z,10.23
2022-10-15T05:44:01.273Z,9.43
2022-10-15T05:46:28.494Z,9.38
2022-10-15T05:48:56.976Z,9.68
2022-10-15T05:51:26.488Z,9.73
2022-10-15T05:53:57.074Z,9.10
2022-10-15T05:56:33.272Z,8.93
2022-10-15T05:59:03.263Z,8.50
2022-10-15T06:01:29.981Z,8.25
2022-10-15T06:03:57.143Z,8.95
2022-10-15T06:06:26.469Z,8.68
2022-10-15T06:08:54.734Z,8.15
2022-10-15T06:11:22.145Z,8.20
2022-10-15T06:13:49.016Z,9.05
2022-10-15T06:16:20.836Z,8.75
2022-10-15T06:18:52.497Z,9.40
2022-10-15T06:21:19.458Z,8.80
2022-10-15T06:23:46.539Z,9.40
2022-10-15T06:26:13.662Z,8.30
2022-10-15T06:28:40.664Z,9.57
2022-10-15T06:31:08.143Z,9.45
2022-10-15T06:33:36.008Z,8.38
2022-10-15T06:36:05.302Z,9.80
2022-10-15T06:38:32.510Z,9.50
2022-10-15T06:41:00.020Z,8.65
2022-10-15T06:43:28.799Z,8.77
2022-10-15T06:46:00.223Z,15.50
2022-10-15T06:48:27.250Z,9.00
2022-10-15T06:50:54.247Z,8.07
2022-10-15T06:53:22.377Z,9.13
2022-10-15T06:55:49.280Z,13.90
2022-10-15T06:58:16.237Z,7.28
2022-10-15T07:00:42.877Z,7.43
2022-10-15T07:03:09.910Z,7.57
2022-10-15T07:05:36.547Z,8.70
2022-10-15T07:08:03.338Z,7.97
2022-10-15T07:10:30.360Z,6.53
2022-10-15T07:13:00.848Z,6.45
2022-10-15T07:15:28.629Z,6.55
2022-10-15T07:17:57.821Z,8.07
2022-10-15T07:20:24.699Z,7.68
2022-10-15T07:22:55.746Z,7.07
2022-10-15T07:25:23.164Z,6.88
2022-10-15T07:27:49.891Z,5.05
2022-10-15T07:30:16.899Z,5.43
2022-10-15T07:32:46.340Z,5.65
2022-10-15T07:37:40.972Z,4.32
2022-10-15T07:40:08.315Z,4.32
2022-10-15T07:42:35.104Z,3.85
2022-10-15T07:45:02.022Z,3.40
2022-10-15T07:47:29.148Z,3.42
2022-10-15T07:49:56.231Z,3.75
2022-10-15T07:52:23.478Z,3.03
2022-10-15T07:54:50.604Z,3.50
2022-10-15T07:57:18.087Z,2.80
2022-10-15T07:59:44.725Z,2.45
2022-10-15T08:02:17.043Z,2.22
2022-10-15T08:04:43.752Z,2.08
2022-10-15T08:07:10.836Z,1.35
2022-10-15T08:09:37.977Z,1.30
2022-10-15T08:12:06.801Z,1.25
2022-10-15T08:14:34.817Z,0.90
2022-10-15T08:17:03.869Z,1.20
2022-10-15T08:19:30.925Z,1.05
2022-10-15T08:21:58.220Z,0.90
2022-10-15T08:24:25.203Z,1.02
2022-10-15T08:26:52.315Z,0.60
2022-10-15T08:29:19.117Z,0.88
2022-10-15T08:31:45.801Z,0.75
2022-10-15T08:34:12.842Z,0.80
2022-10-15T08:36:39.873Z,0.85
2022-10-15T08:39:07.492Z,0.80
2022-10-15T08:41:42.626Z,0.55
2022-10-15T08:44:27.074Z,0.60
2022-10-15T08:47:10.112Z,0.70
2022-10-15T08:49:53.681Z,0.80
2022-10-15T08:52:35.698Z,0.85
2022-10-15T08:55:03.018Z,0.90
2022-10-15T08:57:46.117Z,0.75
2022-10-15T09:00:16.005Z,0.77
2022-10-15T09:02:55.924Z,0.60
2022-10-15T09:05:33.173Z,0.65
2022-10-15T09:08:02.919Z,0.85
2022-10-15T09:10:43.769Z,0.80
2022-10-15T09:13:33.444Z,0.90
2022-10-15T09:16:05.341Z,0.95
2022-10-15T09:18:35.237Z,1.27
2022-10-15T09:21:05.554Z,1.08
2022-10-15T09:23:33.876Z,1.00
2022-10-15T09:26:12.781Z,1.15
2022-10-15T09:28:46.819Z,0.85
2022-10-15T09:31:18.326Z,0.98
2022-10-15T09:33:52.348Z,0.90
2022-10-15T09:36:31.281Z,1.13
2022-10-15T09:39:29.350Z,0.73
2022-10-15T09:42:20.933Z,0.60
2022-10-15T09:44:48.160Z,0.57
2022-10-15T09:47:33.354Z,0.50
2022-10-15T09:50:01.157Z,0.60
2022-10-15T09:52:48.375Z,0.70
2022-10-15T09:55:31.318Z,0.70
2022-10-15T09:58:04.884Z,0.70
2022-10-15T10:00:50.400Z,0.70
2022-10-15T10:03:17.409Z,0.80
2022-10-15T10:05:45.845Z,0.95
2022-10-15T10:08:27.714Z,0.90
2022-10-15T10:11:03.374Z,1.10
2022-10-15T10:13:45.592Z,0.93
2022-10-15T10:16:14.853Z,0.80
2022-10-15T10:18:50.254Z,0.90
2022-10-15T10:21:32.916Z,1.10
2022-10-15T10:24:18.510Z,0.95
2022-10-15T10:26:46.299Z,2.83
2022-10-15T10:29:32.930Z,5.40
2022-10-15T10:32:11.029Z,0.93
2022-10-15T10:34:37.890Z,1.33
2022-10-15T10:37:06.600Z,0.93
2022-10-15T10:39:35.600Z,2.10
2022-10-15T10:42:32.725Z,1.75
2022-10-15T10:45:20.914Z,1.42
2022-10-15T10:47:48.329Z,1.10
2022-10-15T10:50:40.480Z,1.35
2022-10-15T10:53:23.743Z,1.10
2022-10-15T10:55:54.161Z,1.50
2022-10-15T10:58:26.275Z,1.10
2022-10-15T11:00:55.683Z,1.00
2022-10-15T11:03:30.592Z,0.60
2022-10-15T11:06:23.701Z,0.43
2022-10-15T11:09:07.777Z,0.70
2022-10-15T11:12:04.631Z,0.65
2022-10-15T11:14:58.341Z,0.40
2022-10-15T11:18:02.587Z,0.43
2022-10-15T11:21:07.238Z,0.50
2022-10-15T11:24:12.505Z,0.50
2022-10-15T11:27:22.365Z,0.57
2022-10-15T11:30:04.158Z,0.60
2022-10-15T11:33:05.472Z,2.42
2022-10-15T11:35:53.942Z,0.85
2022-10-15T11:39:06.853Z,0.68
2022-10-15T11:41:39.344Z,0.40
2022-10-15T11:44:27.431Z,0.45
2022-10-15T11:47:16.093Z,0.40
2022-10-15T11:50:16.773Z,0.43
2022-10-15T11:53:09.742Z,0.40
2022-10-15T11:55:39.739Z,0.35
2022-10-15T11:58:13.599Z,0.90
2022-10-15T12:00:46.662Z,0.52
2022-10-15T12:03:24.837Z,0.43
2022-10-15T12:06:05.282Z,0.43
2022-10-15T12:08:36.085Z,0.63
2022-10-15T12:11:21.111Z,0.30
2022-10-15T12:14:13.250Z,0.60
2022-10-15T12:16:53.973Z,0.90
2022-10-15T12:19:34.251Z,0.40
2022-10-15T12:22:09.532Z,0.70
2022-10-15T12:24:47.316Z,0.50
2022-10-15T12:27:19.867Z,0.70
2022-10-15T12:30:11.773Z,0.50
2022-10-15T12:32:45.997Z,0.50
2022-10-15T12:35:16.086Z,0.80
2022-10-15T12:37:49.789Z,0.50
2022-10-15T12:40:22.765Z,0.50
2022-10-15T12:42:52.995Z,0.65
2022-10-15T12:45:39.213Z,0.77
2022-10-15T12:48:19.108Z,0.80
2022-10-15T12:50:46.197Z,0.50
2022-10-15T12:53:34.511Z,0.80
2022-10-15T12:56:23.745Z,0.70
2022-10-15T12:58:55.409Z,0.70
2022-10-15T13:01:22.324Z,0.47
2022-10-15T13:03:49.515Z,0.77
2022-10-15T13:06:24.865Z,1.27
2022-10-15T13:09:21.596Z,8.63
2022-10-15T13:11:53.642Z,1.13
2022-10-15T13:14:36.711Z,0.75
2022-10-15T13:17:15.549Z,0.60
2022-10-15T13:19:58.316Z,0.77
2022-10-15T13:22:29.853Z,0.70
2022-10-15T13:24:56.876Z,1.00
2022-10-15T13:27:30.794Z,0.70
2022-10-15T13:29:58.731Z,0.75
2022-10-15T13:32:28.862Z,0.85
2022-10-15T13:34:57.449Z,0.60
2022-10-15T13:37:32.575Z,0.97
2022-10-15T13:40:03.075Z,1.02
2022-10-15T13:42:33.633Z,0.65
2022-10-15T13:45:15.328Z,0.88
2022-10-15T13:47:47.264Z,0.93
2022-10-15T13:50:38.213Z,0.80
2022-10-15T13:53:25.341Z,0.73
2022-10-15T13:55:55.479Z,0.50
2022-10-15T13:58:29.218Z,0.80
2022-10-15T14:01:03.696Z,0.50
2022-10-15T14:03:32.064Z,0.80
2022-10-15T14:06:18.868Z,0.65
2022-10-15T14:08:47.409Z,1.23
2022-10-15T14:11:14.752Z,0.70
2022-10-15T14:13:52.304Z,1.08
2022-10-15T14:16:55.937Z,0.70
2022-10-15T14:19:29.653Z,0.85
2022-10-15T14:22:00.693Z,0.70
2022-10-15T14:24:39.535Z,0.82
2022-10-15T14:27:16.387Z,0.77
2022-10-15T14:29:51.898Z,0.98
2022-10-15T14:32:23.796Z,0.90
2022-10-15T14:34:52.557Z,0.50
2022-10-15T14:37:42.928Z,0.70
2022-10-15T14:40:10.140Z,1.88
2022-10-15T14:42:42.197Z,0.75
2022-10-15T14:45:18.130Z,1.05
2022-10-15T14:47:52.323Z,1.00
2022-10-15T14:50:20.739Z,0.80
2022-10-15T14:52:53.100Z,1.00
2022-10-15T14:55:33.065Z,0.52
2022-10-15T14:58:06.774Z,0.90
2022-10-15T15:00:44.660Z,0.68
2022-10-15T15:03:17.439Z,0.68
2022-10-15T15:05:48.892Z,1.60
2022-10-15T15:08:16.730Z,0.98
2022-10-15T15:13:24.709Z,0.93
2022-10-15T15:15:52.444Z,0.95
2022-10-15T15:18:28.276Z,1.00
2022-10-15T15:21:02.937Z,1.23
2022-10-15T15:23:30.161Z,0.98
2022-10-15T15:25:57.996Z,0.90
2022-10-15T15:28:27.383Z,0.55
2022-10-15T15:31:08.034Z,0.80
2022-10-15T15:33:36.741Z,0.50
2022-10-15T15:36:19.102Z,1.88
2022-10-15T15:38:51.647Z,0.93
2022-10-15T15:41:22.957Z,0.88
2022-10-15T15:43:50.616Z,1.02
2022-10-15T15:46:17.766Z,1.38
2022-10-15T15:48:59.860Z,1.20
2022-10-15T15:51:32.625Z,1.10
2022-10-15T15:53:59.464Z,1.33
2022-10-15T15:56:26.508Z,1.58
2022-10-15T15:58:53.556Z,1.75
2022-10-15T16:01:26.330Z,0.70
2022-10-15T16:03:54.168Z,0.88
2022-10-15T16:06:24.031Z,0.75
2022-10-15T16:08:54.780Z,0.80
2022-10-15T16:11:21.530Z,1.27
2022-10-15T16:13:48.453Z,1.35
2022-10-15T16:16:15.745Z,1.52
2022-10-15T16:18:47.958Z,0.80
2022-10-15T16:21:21.708Z,1.45
2022-10-15T16:23:57.595Z,1.73
2022-10-15T16:26:30.456Z,1.17
2022-10-15T16:28:57.415Z,0.90
2022-10-15T16:31:32.281Z,1.13
2022-10-15T16:34:04.107Z,1.20
2022-10-15T16:36:31.581Z,2.30
2022-10-15T16:39:00.085Z,5.07
2022-10-15T16:41:28.289Z,2.30
2022-10-15T16:44:02.085Z,1.90
2022-10-15T16:46:41.791Z,1.50
2022-10-15T16:49:09.385Z,1.52
2022-10-15T16:51:41.270Z,1.65
2022-10-15T16:54:16.059Z,1.10
2022-10-15T16:56:43.780Z,1.55
2022-10-15T16:59:11.833Z,1.73
2022-10-15T17:01:41.551Z,1.30
2022-10-15T17:04:10.880Z,1.23
2022-10-15T17:06:39.077Z,1.58
2022-10-15T17:09:08.088Z,1.20
2022-10-15T17:11:38.089Z,1.73
2022-10-15T17:14:12.526Z,2.15
2022-10-15T17:16:40.713Z,2.40
2022-10-15T17:19:10.090Z,2.45
2022-10-15T17:21:40.323Z,2.92
2022-10-15T17:24:12.644Z,3.13
2022-10-15T17:26:41.053Z,3.17
2022-10-15T17:29:16.259Z,2.33
2022-10-15T17:31:43.554Z,1.75
2022-10-15T17:34:13.172Z,2.25
2022-10-15T17:39:17.635Z,2.10
2022-10-15T17:41:47.292Z,2.00
2022-10-15T17:46:41.896Z,1.30
2022-10-15T17:49:13.875Z,1.90
2022-10-15T17:51:41.854Z,4.25
2022-10-15T17:54:14.880Z,3.20
2022-10-15T17:56:48.548Z,2.13
2022-10-15T17:59:15.262Z,3.75
2022-10-15T18:02:00.565Z,3.97
2022-10-15T18:04:31.934Z,3.03
2022-10-15T18:06:59.048Z,2.45
2022-10-15T18:09:27.301Z,1.50
2022-10-15T18:12:06.725Z,1.40
2022-10-15T18:14:34.816Z,1.63
2022-10-15T18:17:05.657Z,1.83
2022-10-15T18:19:32.646Z,2.47
2022-10-15T18:21:59.301Z,2.08
2022-10-15T18:24:26.283Z,1.70
2022-10-15T18:26:55.005Z,2.20
2022-10-15T18:29:22.431Z,2.30
2022-10-15T18:31:57.133Z,2.00
2022-10-15T18:34:25.596Z,1.52
2022-10-15T18:36:52.597Z,1.20
2022-10-15T18:39:19.861Z,1.45
2022-10-15T18:41:46.691Z,1.42
2022-10-15T18:44:17.688Z,1.30
2022-10-15T18:46:50.541Z,1.40
2022-10-15T18:49:22.967Z,3.35
2022-10-15T18:51:54.089Z,4.07
2022-10-15T18:54:21.263Z,3.22
2022-10-15T18:56:48.597Z,3.35
2022-10-15T18:59:17.360Z,2.00
2022-10-15T19:01:44.498Z,2.23
2022-10-15T19:04:14.807Z,2.58
2022-10-15T19:06:48.737Z,1.92
2022-10-15T19:09:19.684Z,2.08
2022-10-15T19:11:48.417Z,1.52
2022-10-15T19:14:15.861Z,1.90
2022-10-15T19:16:44.830Z,1.92
2022-10-15T19:19:19.775Z,2.70
2022-10-15T19:21:47.559Z,1.75
2022-10-15T19:24:17.063Z,2.20
2022-10-15T19:26:58.390Z,2.38
2022-10-15T19:29:33.008Z,1.90
2022-10-15T19:32:07.948Z,2.53
2022-10-15T19:34:38.638Z,2.25
2022-10-15T19:37:20.456Z,2.90
2022-10-15T19:39:52.847Z,2.08
2022-10-15T19:42:31.025Z,2.58
2022-10-15T19:45:08.672Z,2.85
2022-10-15T19:47:38.853Z,2.45
2022-10-15T19:50:16.203Z,2.75
2022-10-15T19:52:42.841Z,2.40
2022-10-15T19:55:10.108Z,2.88
2022-10-15T19:57:36.964Z,2.88
2022-10-15T20:00:05.524Z,2.67
2022-10-15T20:02:32.283Z,3.42
2022-10-15T20:05:01.021Z,3.10
2022-10-15T20:07:28.166Z,3.08
2022-10-15T20:09:55.885Z,3.20
2022-10-15T20:12:22.534Z,2.97
2022-10-15T20:14:51.320Z,2.95
2022-10-15T20:17:24.057Z,2.53
2022-10-15T20:19:56.794Z,2.30
2022-10-15T20:22:23.802Z,2.75
2022-10-15T20:24:51.771Z,2.33
2022-10-15T20:27:18.768Z,2.65
2022-10-15T20:29:46.633Z,2.15
2022-10-15T20:32:30.292Z,2.60
2022-10-15T20:35:00.458Z,2.53
2022-10-15T20:37:27.478Z,1.80
2022-10-15T20:39:54.514Z,2.28
2022-10-15T20:42:23.324Z,1.77
2022-10-15T20:44:50.838Z,2.30
2022-10-15T20:47:24.903Z,2.10
2022-10-15T20:49:56.704Z,1.75
2022-10-15T20:52:26.116Z,1.83
2022-10-15T20:55:01.509Z,1.65
2022-10-15T20:57:31.832Z,1.95
2022-10-15T20:59:59.497Z,1.60
2022-10-15T21:02:28.595Z,1.50
2022-10-15T21:04:56.567Z,1.60
2022-10-15T21:07:25.350Z,1.60
2022-10-15T21:09:54.234Z,1.50
2022-10-15T21:12:22.672Z,1.67
2022-10-15T21:14:51.419Z,1.40
2022-10-15T21:17:19.049Z,1.40
2022-10-15T21:19:50.329Z,1.48
2022-10-15T21:22:19.859Z,1.42
2022-10-15T21:24:50.916Z,1.00
2022-10-15T21:27:19.259Z,1.60
2022-10-15T21:29:53.662Z,1.30
2022-10-15T21:32:23.153Z,1.33
2022-10-15T21:34:54.004Z,1.10
2022-10-15T21:37:22.189Z,1.55
2022-10-15T21:39:51.457Z,1.10
2022-10-15T21:42:18.771Z,1.48
2022-10-15T21:44:45.974Z,1.20
2022-10-15T21:47:16.605Z,1.30
2022-10-15T21:49:45.906Z,1.17
2022-10-15T21:52:14.747Z,1.23
2022-10-15T21:54:43.585Z,1.37
2022-10-15T21:57:13.469Z,1.10
2022-10-15T22:02:08.490Z,1.20
2022-10-15T22:04:37.611Z,0.95
2022-10-15T22:07:10.203Z,1.00
2022-10-15T22:09:43.843Z,1.33
2022-10-15T22:12:19.013Z,1.00
2022-10-15T22:14:50.466Z,0.68
2022-10-15T22:17:22.018Z,0.88
2022-10-15T22:19:51.895Z,0.82
2022-10-15T22:22:26.706Z,0.80
2022-10-15T22:24:54.909Z,1.50
2022-10-15T22:27:27.000Z,0.88
2022-10-15T22:29:58.758Z,0.68
2022-10-15T22:32:31.450Z,0.80
2022-10-15T22:35:07.713Z,0.63
2022-10-15T22:37:35.069Z,0.90
2022-10-15T22:40:05.258Z,1.02
2022-10-15T22:42:33.307Z,0.88
2022-10-15T22:45:03.759Z,0.80
2022-10-15T22:47:37.700Z,0.80
2022-10-15T22:50:08.478Z,1.10
2022-10-15T22:52:37.510Z,0.80
2022-10-15T22:55:09.455Z,0.73
2022-10-15T22:57:36.335Z,0.90
2022-10-15T23:00:09.625Z,0.80
2022-10-15T23:02:38.568Z,0.90
2022-10-15T23:05:07.049Z,1.00
2022-10-15T23:07:35.624Z,1.20
2022-10-15T23:10:03.097Z,0.80
2022-10-15T23:12:35.475Z,0.50
2022-10-15T23:15:05.596Z,1.45
2022-10-15T23:17:34.919Z,0.90
2022-10-15T23:20:03.432Z,1.90
2022-10-15T23:22:32.267Z,0.85
2022-10-15T23:24:59.759Z,0.60
2022-10-15T23:27:27.058Z,0.80
2022-10-15T23:30:14.077Z,1.00
2022-10-15T23:32:45.532Z,0.88
2022-10-15T23:35:17.337Z,0.73
2022-10-15T23:37:47.852Z,0.85
2022-10-15T23:40:14.900Z,1.00
2022-10-15T23:42:42.193Z,0.70
2022-10-15T23:45:18.635Z,0.63
2022-10-15T23:47:48.261Z,0.77
2022-10-15T23:50:15.308Z,1.08
2022-10-15T23:52:43.581Z,1.85
2022-10-15T23:55:13.070Z,1.00
2022-10-15T23:57:44.814Z,0.98
